sensor_id;sensor_type;location;lat;lon;timestamp;pressure;altitude;pressure_sealevel;temperature;humidity
59104;BME280;51449;51.676;5.812;2023-05-29T00:00:50;102227.81;;;13.71;67.21
59104;BME280;51449;51.676;5.812;2023-05-29T00:03:32;102229.41;;;13.63;66.66
59104;BME280;51449;51.676;5.812;2023-05-29T00:06:13;102227.09;;;13.57;66.52
59104;BME280;51449;51.676;5.812;2023-05-29T00:08:53;102234.09;;;13.54;66.28
59104;BME280;51449;51.676;5.812;2023-05-29T00:11:34;102244.50;;;13.48;66.30
59104;BME280;51449;51.676;5.812;2023-05-29T00:14:14;102240.53;;;13.41;66.06
59104;BME280;51449;51.676;5.812;2023-05-29T00:16:54;102251.22;;;13.34;65.95
59104;BME280;51449;51.676;5.812;2023-05-29T00:19:36;102247.78;;;13.28;65.67
59104;BME280;51449;51.676;5.812;2023-05-29T00:22:17;102245.13;;;13.23;65.49
59104;BME280;51449;51.676;5.812;2023-05-29T00:24:57;102259.09;;;13.18;65.21
59104;BME280;51449;51.676;5.812;2023-05-29T00:27:37;102254.00;;;13.11;65.09
59104;BME280;51449;51.676;5.812;2023-05-29T00:30:18;102251.38;;;13.06;64.86
59104;BME280;51449;51.676;5.812;2023-05-29T00:32:58;102251.50;;;13.01;65.06
59104;BME280;51449;51.676;5.812;2023-05-29T00:35:38;102256.53;;;12.99;64.74
59104;BME280;51449;51.676;5.812;2023-05-29T00:38:19;102257.97;;;12.96;64.81
59104;BME280;51449;51.676;5.812;2023-05-29T00:41:00;102257.31;;;12.91;64.55
59104;BME280;51449;51.676;5.812;2023-05-29T00:43:40;102272.38;;;12.84;64.84
59104;BME280;51449;51.676;5.812;2023-05-29T00:46:21;102269.72;;;12.79;65.00
59104;BME280;51449;51.676;5.812;2023-05-29T00:49:03;102264.97;;;12.71;64.51
59104;BME280;51449;51.676;5.812;2023-05-29T00:51:45;102275.81;;;12.68;64.57
59104;BME280;51449;51.676;5.812;2023-05-29T00:54:28;102273.19;;;12.62;64.89
59104;BME280;51449;51.676;5.812;2023-05-29T00:57:11;102275.75;;;12.59;64.68
59104;BME280;51449;51.676;5.812;2023-05-29T00:59:53;102277.50;;;12.55;64.87
59104;BME280;51449;51.676;5.812;2023-05-29T01:02:36;102282.00;;;12.51;64.82
59104;BME280;51449;51.676;5.812;2023-05-29T01:05:19;102289.31;;;12.47;65.12
59104;BME280;51449;51.676;5.812;2023-05-29T01:07:59;102292.19;;;12.41;65.24
59104;BME280;51449;51.676;5.812;2023-05-29T01:10:40;102289.53;;;12.36;65.43
59104;BME280;51449;51.676;5.812;2023-05-29T01:13:27;102281.34;;;12.31;65.63
59104;BME280;51449;51.676;5.812;2023-05-29T01:16:21;102281.44;;;12.26;65.20
59104;BME280;51449;51.676;5.812;2023-05-29T01:19:42;102271.84;;;12.24;65.38
59104;BME280;51449;51.676;5.812;2023-05-29T01:22:58;102293.25;;;12.18;65.75
59104;BME280;51449;51.676;5.812;2023-05-29T01:25:56;102291.69;;;12.12;65.83
59104;BME280;51449;51.676;5.812;2023-05-29T01:28:48;102292.31;;;12.09;66.07
59104;BME280;51449;51.676;5.812;2023-05-29T01:31:32;102291.31;;;12.05;66.07
59104;BME280;51449;51.676;5.812;2023-05-29T01:34:15;102295.81;;;12.01;66.16
59104;BME280;51449;51.676;5.812;2023-05-29T01:36:56;102293.84;;;12.01;66.18
59104;BME280;51449;51.676;5.812;2023-05-29T01:39:37;102291.91;;;12.02;66.70
59104;BME280;51449;51.676;5.812;2023-05-29T01:42:18;102286.19;;;11.98;66.55
59104;BME280;51449;51.676;5.812;2023-05-29T01:44:59;102287.31;;;11.97;66.09
59104;BME280;51449;51.676;5.812;2023-05-29T01:47:40;102296.72;;;11.96;66.45
59104;BME280;51449;51.676;5.812;2023-05-29T01:50:22;102289.88;;;11.93;66.27
59104;BME280;51449;51.676;5.812;2023-05-29T01:53:05;102289.97;;;11.88;66.82
59104;BME280;51449;51.676;5.812;2023-05-29T01:55:46;102287.50;;;11.87;66.62
59104;BME280;51449;51.676;5.812;2023-05-29T01:58:27;102293.63;;;11.84;66.61
59104;BME280;51449;51.676;5.812;2023-05-29T02:01:09;102288.41;;;11.82;66.78
59104;BME280;51449;51.676;5.812;2023-05-29T02:03:50;102286.88;;;11.76;67.37
59104;BME280;51449;51.676;5.812;2023-05-29T02:06:31;102293.03;;;11.73;66.87
59104;BME280;51449;51.676;5.812;2023-05-29T02:09:13;102274.81;;;11.72;67.12
59104;BME280;51449;51.676;5.812;2023-05-29T02:11:53;102282.88;;;11.68;67.08
59104;BME280;51449;51.676;5.812;2023-05-29T02:14:34;102272.44;;;11.65;67.02
59104;BME280;51449;51.676;5.812;2023-05-29T02:17:14;102281.84;;;11.64;67.18
59104;BME280;51449;51.676;5.812;2023-05-29T02:19:55;102279.38;;;11.63;67.23
59104;BME280;51449;51.676;5.812;2023-05-29T02:22:35;102286.22;;;11.65;67.31
59104;BME280;51449;51.676;5.812;2023-05-29T02:25:15;102284.09;;;11.62;67.58
59104;BME280;51449;51.676;5.812;2023-05-29T02:27:56;102288.28;;;11.60;67.96
59104;BME280;51449;51.676;5.812;2023-05-29T02:30:36;102300.56;;;11.53;68.05
59104;BME280;51449;51.676;5.812;2023-05-29T02:33:16;102303.09;;;11.50;67.87
59104;BME280;51449;51.676;5.812;2023-05-29T02:35:57;102296.84;;;11.44;68.03
59104;BME280;51449;51.676;5.812;2023-05-29T02:38:37;102307.16;;;11.39;68.75
59104;BME280;51449;51.676;5.812;2023-05-29T02:41:19;102311.03;;;11.38;68.66
59104;BME280;51449;51.676;5.812;2023-05-29T02:44:03;102312.47;;;11.35;68.70
59104;BME280;51449;51.676;5.812;2023-05-29T02:46:44;102314.41;;;11.34;68.57
59104;BME280;51449;51.676;5.812;2023-05-29T02:49:24;102311.94;;;11.33;68.53
59104;BME280;51449;51.676;5.812;2023-05-29T02:52:05;102319.69;;;11.31;68.98
59104;BME280;51449;51.676;5.812;2023-05-29T02:54:45;102318.06;;;11.30;69.22
59104;BME280;51449;51.676;5.812;2023-05-29T02:57:26;102313.97;;;11.27;69.64
59104;BME280;51449;51.676;5.812;2023-05-29T03:00:07;102318.44;;;11.23;69.59
59104;BME280;51449;51.676;5.812;2023-05-29T03:02:48;102312.72;;;11.20;69.85
59104;BME280;51449;51.676;5.812;2023-05-29T03:05:28;102308.31;;;11.19;69.67
59104;BME280;51449;51.676;5.812;2023-05-29T03:08:09;102305.88;;;11.17;69.40
59104;BME280;51449;51.676;5.812;2023-05-29T03:10:50;102314.16;;;11.17;69.35
59104;BME280;51449;51.676;5.812;2023-05-29T03:13:33;102305.34;;;11.15;69.42
59104;BME280;51449;51.676;5.812;2023-05-29T03:16:18;102301.84;;;11.09;69.98
59104;BME280;51449;51.676;5.812;2023-05-29T03:18:59;102304.69;;;11.04;70.21
59104;BME280;51449;51.676;5.812;2023-05-29T03:21:40;102304.41;;;11.06;70.26
59104;BME280;51449;51.676;5.812;2023-05-29T03:24:20;102303.06;;;11.03;70.07
59104;BME280;51449;51.676;5.812;2023-05-29T03:27:01;102300.91;;;11.00;70.40
59104;BME280;51449;51.676;5.812;2023-05-29T03:29:44;102322.13;;;11.00;70.09
59104;BME280;51449;51.676;5.812;2023-05-29T03:32:24;102318.56;;;10.99;69.98
59104;BME280;51449;51.676;5.812;2023-05-29T03:35:05;102334.28;;;10.99;70.07
59104;BME280;51449;51.676;5.812;2023-05-29T03:37:45;102337.34;;;10.97;70.15
59104;BME280;51449;51.676;5.812;2023-05-29T03:40:25;102327.16;;;10.98;69.77
59104;BME280;51449;51.676;5.812;2023-05-29T03:43:06;102316.13;;;10.98;69.99
59104;BME280;51449;51.676;5.812;2023-05-29T03:45:46;102319.97;;;10.97;70.06
59104;BME280;51449;51.676;5.812;2023-05-29T03:48:26;102315.28;;;10.97;69.86
59104;BME280;51449;51.676;5.812;2023-05-29T03:51:06;102324.06;;;10.99;70.08
59104;BME280;51449;51.676;5.812;2023-05-29T03:53:49;102337.13;;;10.93;70.04
59104;BME280;51449;51.676;5.812;2023-05-29T03:56:30;102329.16;;;10.92;70.28
59104;BME280;51449;51.676;5.812;2023-05-29T03:59:11;102339.59;;;10.95;69.87
59104;BME280;51449;51.676;5.812;2023-05-29T04:01:51;102341.31;;;10.91;70.35
59104;BME280;51449;51.676;5.812;2023-05-29T04:04:33;102344.28;;;10.95;70.11
59104;BME280;51449;51.676;5.812;2023-05-29T04:07:13;102337.13;;;10.93;70.45
59104;BME280;51449;51.676;5.812;2023-05-29T04:09:54;102346.47;;;10.98;69.89
59104;BME280;51449;51.676;5.812;2023-05-29T04:12:34;102348.38;;;10.97;69.87
59104;BME280;51449;51.676;5.812;2023-05-29T04:15:15;102357.16;;;10.99;70.01
59104;BME280;51449;51.676;5.812;2023-05-29T04:17:55;102363.56;;;10.95;70.31
59104;BME280;51449;51.676;5.812;2023-05-29T04:20:36;102356.97;;;10.96;70.20
59104;BME280;51449;51.676;5.812;2023-05-29T04:23:16;102347.56;;;10.97;70.40
59104;BME280;51449;51.676;5.812;2023-05-29T04:25:56;102350.31;;;10.97;70.11
59104;BME280;51449;51.676;5.812;2023-05-29T04:28:39;102356.34;;;10.99;69.88
59104;BME280;51449;51.676;5.812;2023-05-29T04:31:19;102363.81;;;10.98;70.21
59104;BME280;51449;51.676;5.812;2023-05-29T04:34:02;102363.75;;;11.03;70.04
59104;BME280;51449;51.676;5.812;2023-05-29T04:36:44;102362.84;;;11.08;69.90
59104;BME280;51449;51.676;5.812;2023-05-29T04:39:26;102361.13;;;11.12;69.76
59104;BME280;51449;51.676;5.812;2023-05-29T04:42:06;102370.75;;;11.14;69.77
59104;BME280;51449;51.676;5.812;2023-05-29T04:44:48;102360.53;;;11.15;69.42
59104;BME280;51449;51.676;5.812;2023-05-29T04:47:29;102357.69;;;11.20;69.50
59104;BME280;51449;51.676;5.812;2023-05-29T04:50:14;102362.59;;;11.23;69.13
59104;BME280;51449;51.676;5.812;2023-05-29T04:52:56;102365.06;;;11.25;69.25
59104;BME280;51449;51.676;5.812;2023-05-29T04:55:37;102363.94;;;11.26;69.03
59104;BME280;51449;51.676;5.812;2023-05-29T04:58:17;102357.00;;;11.28;69.24
59104;BME280;51449;51.676;5.812;2023-05-29T05:00:58;102358.03;;;11.32;68.73
59104;BME280;51449;51.676;5.812;2023-05-29T05:03:43;102357.88;;;11.43;68.84
59104;BME280;51449;51.676;5.812;2023-05-29T05:06:26;102357.25;;;11.46;68.92
59104;BME280;51449;51.676;5.812;2023-05-29T05:09:06;102356.34;;;11.50;68.37
59104;BME280;51449;51.676;5.812;2023-05-29T05:11:46;102363.72;;;11.55;68.22
59104;BME280;51449;51.676;5.812;2023-05-29T05:14:27;102372.81;;;11.55;67.93
59104;BME280;51449;51.676;5.812;2023-05-29T05:17:09;102377.22;;;11.56;68.08
59104;BME280;51449;51.676;5.812;2023-05-29T05:19:50;102396.22;;;11.58;68.07
59104;BME280;51449;51.676;5.812;2023-05-29T05:22:32;102398.41;;;11.61;67.96
59104;BME280;51449;51.676;5.812;2023-05-29T05:25:12;102396.91;;;11.69;68.08
59104;BME280;51449;51.676;5.812;2023-05-29T05:27:52;102398.06;;;11.82;67.82
59104;BME280;51449;51.676;5.812;2023-05-29T05:30:34;102395.94;;;11.92;67.61
59104;BME280;51449;51.676;5.812;2023-05-29T05:33:15;102391.59;;;12.05;67.24
59104;BME280;51449;51.676;5.812;2023-05-29T05:35:55;102396.19;;;12.10;66.86
59104;BME280;51449;51.676;5.812;2023-05-29T05:38:35;102397.72;;;12.16;66.35
59104;BME280;51449;51.676;5.812;2023-05-29T05:41:15;102400.19;;;12.17;65.92
59104;BME280;51449;51.676;5.812;2023-05-29T05:43:56;102398.84;;;12.15;66.07
59104;BME280;51449;51.676;5.812;2023-05-29T05:46:42;102397.44;;;12.17;66.06
59104;BME280;51449;51.676;5.812;2023-05-29T05:49:22;102384.31;;;12.23;65.59
59104;BME280;51449;51.676;5.812;2023-05-29T05:52:03;102395.38;;;12.23;65.29
59104;BME280;51449;51.676;5.812;2023-05-29T05:54:43;102387.38;;;12.21;65.34
59104;BME280;51449;51.676;5.812;2023-05-29T05:57:25;102391.69;;;12.28;65.36
59104;BME280;51449;51.676;5.812;2023-05-29T06:00:06;102390.97;;;12.36;65.13
59104;BME280;51449;51.676;5.812;2023-05-29T06:02:55;102395.78;;;12.44;65.20
59104;BME280;51449;51.676;5.812;2023-05-29T06:05:48;102393.22;;;12.48;64.23
59104;BME280;51449;51.676;5.812;2023-05-29T06:08:30;102400.88;;;12.51;64.21
59104;BME280;51449;51.676;5.812;2023-05-29T06:11:10;102394.75;;;12.54;63.90
59104;BME280;51449;51.676;5.812;2023-05-29T06:13:54;102391.06;;;12.58;64.03
59104;BME280;51449;51.676;5.812;2023-05-29T06:16:40;102395.88;;;12.67;63.89
59104;BME280;51449;51.676;5.812;2023-05-29T06:19:21;102402.22;;;12.67;63.02
59104;BME280;51449;51.676;5.812;2023-05-29T06:22:10;102408.56;;;12.68;63.31
59104;BME280;51449;51.676;5.812;2023-05-29T06:24:51;102415.94;;;12.72;63.27
59104;BME280;51449;51.676;5.812;2023-05-29T06:27:31;102416.13;;;12.76;63.03
59104;BME280;51449;51.676;5.812;2023-05-29T06:30:12;102420.63;;;12.85;63.14
59104;BME280;51449;51.676;5.812;2023-05-29T06:32:53;102410.91;;;12.88;62.97
59104;BME280;51449;51.676;5.812;2023-05-29T06:35:39;102419.50;;;12.87;61.90
59104;BME280;51449;51.676;5.812;2023-05-29T06:38:20;102411.72;;;12.89;62.27
59104;BME280;51449;51.676;5.812;2023-05-29T06:41:01;102420.69;;;13.08;62.54
59104;BME280;51449;51.676;5.812;2023-05-29T06:43:42;102416.09;;;13.26;62.13
59104;BME280;51449;51.676;5.812;2023-05-29T06:46:23;102413.97;;;13.37;61.93
59104;BME280;51449;51.676;5.812;2023-05-29T06:49:04;102413.69;;;13.47;61.47
59104;BME280;51449;51.676;5.812;2023-05-29T06:51:45;102410.69;;;13.57;60.41
59104;BME280;51449;51.676;5.812;2023-05-29T06:54:37;102419.72;;;13.72;60.00
59104;BME280;51449;51.676;5.812;2023-05-29T06:57:18;102413.94;;;13.82;60.37
59104;BME280;51449;51.676;5.812;2023-05-29T06:59:58;102411.53;;;13.89;60.21
59104;BME280;51449;51.676;5.812;2023-05-29T07:02:40;102413.72;;;14.01;60.21
59104;BME280;51449;51.676;5.812;2023-05-29T07:05:20;102413.94;;;14.13;59.45
59104;BME280;51449;51.676;5.812;2023-05-29T07:08:01;102418.66;;;14.12;58.21
59104;BME280;51449;51.676;5.812;2023-05-29T07:10:42;102415.59;;;14.23;58.62
59104;BME280;51449;51.676;5.812;2023-05-29T07:13:24;102412.03;;;14.31;58.36
59104;BME280;51449;51.676;5.812;2023-05-29T07:16:07;102422.53;;;14.43;58.31
59104;BME280;51449;51.676;5.812;2023-05-29T07:19:06;102421.94;;;14.54;57.32
59104;BME280;51449;51.676;5.812;2023-05-29T07:21:58;102424.75;;;14.63;57.17
59104;BME280;51449;51.676;5.812;2023-05-29T07:24:39;102416.13;;;14.73;56.33
59104;BME280;51449;51.676;5.812;2023-05-29T07:27:21;102417.59;;;14.80;56.14
59104;BME280;51449;51.676;5.812;2023-05-29T07:30:01;102419.06;;;14.77;56.36
59104;BME280;51449;51.676;5.812;2023-05-29T07:32:42;102428.06;;;14.91;55.74
59104;BME280;51449;51.676;5.812;2023-05-29T07:35:23;102424.31;;;14.96;56.08
59104;BME280;51449;51.676;5.812;2023-05-29T07:38:04;102426.13;;;15.09;56.42
59104;BME280;51449;51.676;5.812;2023-05-29T07:40:45;102424.19;;;15.27;55.55
59104;BME280;51449;51.676;5.812;2023-05-29T07:43:37;102431.03;;;15.38;55.10
59104;BME280;51449;51.676;5.812;2023-05-29T07:46:20;102429.25;;;15.43;54.65
59104;BME280;51449;51.676;5.812;2023-05-29T07:49:04;102425.63;;;15.51;54.50
59104;BME280;51449;51.676;5.812;2023-05-29T07:51:45;102425.63;;;15.59;54.03
59104;BME280;51449;51.676;5.812;2023-05-29T07:54:26;102433.47;;;15.66;54.27
59104;BME280;51449;51.676;5.812;2023-05-29T07:57:08;102431.69;;;15.79;53.96
59104;BME280;51449;51.676;5.812;2023-05-29T07:59:51;102432.13;;;15.90;53.85
59104;BME280;51449;51.676;5.812;2023-05-29T08:02:31;102443.72;;;16.00;52.66
59104;BME280;51449;51.676;5.812;2023-05-29T08:05:47;102430.63;;;16.01;52.41
59104;BME280;51449;51.676;5.812;2023-05-29T08:08:29;102435.66;;;16.16;52.58
59104;BME280;51449;51.676;5.812;2023-05-29T08:11:10;102438.19;;;16.39;52.07
59104;BME280;51449;51.676;5.812;2023-05-29T08:13:52;102440.75;;;16.53;51.47
59104;BME280;51449;51.676;5.812;2023-05-29T08:16:32;102436.28;;;16.60;51.26
59104;BME280;51449;51.676;5.812;2023-05-29T08:19:14;102444.06;;;16.76;50.51
59104;BME280;51449;51.676;5.812;2023-05-29T08:21:54;102449.94;;;16.83;48.86
59104;BME280;51449;51.676;5.812;2023-05-29T08:24:35;102445.06;;;16.71;48.57
59104;BME280;51449;51.676;5.812;2023-05-29T08:27:15;102445.97;;;16.54;49.04
59104;BME280;51449;51.676;5.812;2023-05-29T08:29:55;102437.22;;;16.35;48.69
59104;BME280;51449;51.676;5.812;2023-05-29T08:32:36;102441.81;;;16.31;49.22
59104;BME280;51449;51.676;5.812;2023-05-29T08:35:16;102433.88;;;16.50;50.05
59104;BME280;51449;51.676;5.812;2023-05-29T08:37:56;102440.19;;;16.68;48.94
59104;BME280;51449;51.676;5.812;2023-05-29T08:40:37;102445.47;;;16.90;49.01
59104;BME280;51449;51.676;5.812;2023-05-29T08:43:21;102442.03;;;17.15;48.76
59104;BME280;51449;51.676;5.812;2023-05-29T08:46:02;102449.56;;;17.35;47.75
59104;BME280;51449;51.676;5.812;2023-05-29T08:48:47;102455.47;;;17.54;47.69
59104;BME280;51449;51.676;5.812;2023-05-29T08:51:32;102463.53;;;17.68;46.51
59104;BME280;51449;51.676;5.812;2023-05-29T08:54:18;102451.09;;;17.66;46.38
59104;BME280;51449;51.676;5.812;2023-05-29T08:57:00;102448.66;;;17.85;46.22
59104;BME280;51449;51.676;5.812;2023-05-29T08:59:42;102459.59;;;17.90;46.55
59104;BME280;51449;51.676;5.812;2023-05-29T09:02:24;102452.97;;;17.95;45.55
59104;BME280;51449;51.676;5.812;2023-05-29T09:05:05;102459.09;;;17.88;45.33
59104;BME280;51449;51.676;5.812;2023-05-29T09:07:48;102453.75;;;17.83;45.63
59104;BME280;51449;51.676;5.812;2023-05-29T09:10:29;102448.38;;;17.78;45.97
59104;BME280;51449;51.676;5.812;2023-05-29T09:13:11;102456.19;;;17.85;46.67
59104;BME280;51449;51.676;5.812;2023-05-29T09:15:58;102457.38;;;17.96;46.16
59104;BME280;51449;51.676;5.812;2023-05-29T09:18:39;102461.16;;;18.12;45.84
59104;BME280;51449;51.676;5.812;2023-05-29T09:21:26;102463.72;;;18.17;44.90
59104;BME280;51449;51.676;5.812;2023-05-29T09:24:07;102456.63;;;18.20;45.45
59104;BME280;51449;51.676;5.812;2023-05-29T09:26:51;102460.91;;;18.17;45.50
59104;BME280;51449;51.676;5.812;2023-05-29T09:29:33;102443.38;;;18.17;45.55
59104;BME280;51449;51.676;5.812;2023-05-29T09:32:18;102451.53;;;18.34;45.69
59104;BME280;51449;51.676;5.812;2023-05-29T09:35:00;102458.63;;;18.44;44.63
59104;BME280;51449;51.676;5.812;2023-05-29T09:37:41;102453.03;;;18.44;45.20
59104;BME280;51449;51.676;5.812;2023-05-29T09:40:22;102451.53;;;18.59;44.76
59104;BME280;51449;51.676;5.812;2023-05-29T09:43:04;102453.75;;;18.66;43.79
59104;BME280;51449;51.676;5.812;2023-05-29T09:45:48;102450.25;;;18.56;44.04
59104;BME280;51449;51.676;5.812;2023-05-29T09:48:29;102449.44;;;18.56;44.56
59104;BME280;51449;51.676;5.812;2023-05-29T09:51:21;102453.63;;;18.74;43.94
59104;BME280;51449;51.676;5.812;2023-05-29T09:54:17;102451.22;;;18.85;44.34
59104;BME280;51449;51.676;5.812;2023-05-29T09:56:58;102455.25;;;19.00;43.94
59104;BME280;51449;51.676;5.812;2023-05-29T09:59:43;102451.84;;;19.07;43.58
59104;BME280;51449;51.676;5.812;2023-05-29T10:02:25;102449.06;;;19.07;42.66
59104;BME280;51449;51.676;5.812;2023-05-29T10:05:06;102443.69;;;19.14;43.55
59104;BME280;51449;51.676;5.812;2023-05-29T10:07:50;102442.97;;;19.29;43.41
59104;BME280;51449;51.676;5.812;2023-05-29T10:10:36;102435.81;;;19.44;43.23
59104;BME280;51449;51.676;5.812;2023-05-29T10:13:19;102441.59;;;19.51;42.50
59104;BME280;51449;51.676;5.812;2023-05-29T10:16:07;102438.63;;;19.60;42.02
59104;BME280;51449;51.676;5.812;2023-05-29T10:18:55;102431.78;;;19.57;41.17
59104;BME280;51449;51.676;5.812;2023-05-29T10:21:37;102435.03;;;19.59;40.83
59104;BME280;51449;51.676;5.812;2023-05-29T10:24:21;102434.56;;;19.57;41.59
59104;BME280;51449;51.676;5.812;2023-05-29T10:27:03;102442.47;;;19.67;40.65
59104;BME280;51449;51.676;5.812;2023-05-29T10:33:20;102432.56;;;19.70;41.22
59104;BME280;51449;51.676;5.812;2023-05-29T10:36:22;102432.47;;;19.82;40.52
59104;BME280;51449;51.676;5.812;2023-05-29T10:39:06;102438.91;;;19.83;40.71
59104;BME280;51449;51.676;5.812;2023-05-29T10:41:48;102441.06;;;19.89;40.45
59104;BME280;51449;51.676;5.812;2023-05-29T10:47:10;102437.91;;;19.75;40.65
59104;BME280;51449;51.676;5.812;2023-05-29T10:49:59;102423.56;;;19.77;41.01
59104;BME280;51449;51.676;5.812;2023-05-29T10:52:46;102424.09;;;19.82;40.74
59104;BME280;51449;51.676;5.812;2023-05-29T10:55:35;102430.72;;;19.90;40.39
59104;BME280;51449;51.676;5.812;2023-05-29T10:58:21;102428.28;;;19.88;40.56
59104;BME280;51449;51.676;5.812;2023-05-29T11:01:08;102432.47;;;19.82;40.38
59104;BME280;51449;51.676;5.812;2023-05-29T11:03:48;102433.13;;;19.76;40.77
59104;BME280;51449;51.676;5.812;2023-05-29T11:06:34;102427.28;;;19.81;41.44
59104;BME280;51449;51.676;5.812;2023-05-29T11:09:34;102426.94;;;19.98;41.21
59104;BME280;51449;51.676;5.812;2023-05-29T11:12:24;102416.09;;;20.13;40.31
59104;BME280;51449;51.676;5.812;2023-05-29T11:15:14;102423.03;;;20.19;40.62
59104;BME280;51449;51.676;5.812;2023-05-29T11:18:05;102419.34;;;20.30;39.82
59104;BME280;51449;51.676;5.812;2023-05-29T11:20:53;102420.16;;;20.31;40.12
59104;BME280;51449;51.676;5.812;2023-05-29T11:23:41;102431.72;;;20.29;39.87
59104;BME280;51449;51.676;5.812;2023-05-29T11:26:25;102425.31;;;20.29;39.92
59104;BME280;51449;51.676;5.812;2023-05-29T11:29:07;102416.19;;;20.32;40.41
59104;BME280;51449;51.676;5.812;2023-05-29T11:32:05;102413.56;;;20.39;40.63
59104;BME280;51449;51.676;5.812;2023-05-29T11:34:48;102409.13;;;20.54;40.55
59104;BME280;51449;51.676;5.812;2023-05-29T11:37:32;102411.31;;;20.61;39.29
59104;BME280;51449;51.676;5.812;2023-05-29T11:40:14;102403.09;;;20.68;39.46
59104;BME280;51449;51.676;5.812;2023-05-29T11:42:55;102408.19;;;20.82;39.26
59104;BME280;51449;51.676;5.812;2023-05-29T11:45:36;102406.22;;;21.02;38.90
59104;BME280;51449;51.676;5.812;2023-05-29T11:48:17;102407.13;;;21.06;38.64
59104;BME280;51449;51.676;5.812;2023-05-29T11:50:57;102401.34;;;20.99;37.67
59104;BME280;51449;51.676;5.812;2023-05-29T11:53:46;102406.59;;;21.00;38.35
59104;BME280;51449;51.676;5.812;2023-05-29T11:56:29;102406.22;;;21.02;38.18
59104;BME280;51449;51.676;5.812;2023-05-29T11:59:11;102401.19;;;20.91;38.08
59104;BME280;51449;51.676;5.812;2023-05-29T12:01:52;102399.78;;;20.82;38.50
59104;BME280;51449;51.676;5.812;2023-05-29T12:04:32;102396.00;;;20.74;38.16
59104;BME280;51449;51.676;5.812;2023-05-29T12:07:19;102401.78;;;20.81;37.59
59104;BME280;51449;51.676;5.812;2023-05-29T12:10:14;102401.41;;;20.83;37.68
59104;BME280;51449;51.676;5.812;2023-05-29T12:12:59;102392.56;;;20.81;38.00
59104;BME280;51449;51.676;5.812;2023-05-29T12:15:43;102400.31;;;20.87;38.38
59104;BME280;51449;51.676;5.812;2023-05-29T12:18:25;102396.69;;;20.87;37.43
59104;BME280;51449;51.676;5.812;2023-05-29T12:21:06;102395.88;;;20.86;37.38
59104;BME280;51449;51.676;5.812;2023-05-29T12:23:47;102389.47;;;20.86;37.73
59104;BME280;51449;51.676;5.812;2023-05-29T12:26:37;102384.16;;;20.81;37.15
59104;BME280;51449;51.676;5.812;2023-05-29T12:29:18;102390.75;;;20.72;37.54
59104;BME280;51449;51.676;5.812;2023-05-29T12:31:58;102392.41;;;20.73;37.61
59104;BME280;51449;51.676;5.812;2023-05-29T12:34:39;102400.59;;;20.82;36.86
59104;BME280;51449;51.676;5.812;2023-05-29T12:37:22;102405.38;;;20.82;36.63
59104;BME280;51449;51.676;5.812;2023-05-29T12:40:29;102404.56;;;20.81;37.23
59104;BME280;51449;51.676;5.812;2023-05-29T12:43:11;102392.56;;;20.81;36.98
59104;BME280;51449;51.676;5.812;2023-05-29T12:45:55;102407.22;;;20.74;37.17
59104;BME280;51449;51.676;5.812;2023-05-29T12:48:38;102402.06;;;20.76;36.63
59104;BME280;51449;51.676;5.812;2023-05-29T12:51:23;102402.63;;;20.66;35.84
59104;BME280;51449;51.676;5.812;2023-05-29T12:54:07;102399.81;;;20.50;36.24
59104;BME280;51449;51.676;5.812;2023-05-29T12:56:47;102416.09;;;20.44;36.56
59104;BME280;51449;51.676;5.812;2023-05-29T12:59:30;102406.78;;;20.40;35.92
59104;BME280;51449;51.676;5.812;2023-05-29T13:02:12;102413.00;;;20.34;35.06
59104;BME280;51449;51.676;5.812;2023-05-29T13:04:54;102398.25;;;20.17;35.49
59104;BME280;51449;51.676;5.812;2023-05-29T13:07:34;102403.03;;;20.17;35.90
59104;BME280;51449;51.676;5.812;2023-05-29T13:10:15;102400.84;;;20.26;35.89
59104;BME280;51449;51.676;5.812;2023-05-29T13:12:55;102405.44;;;20.34;34.76
59104;BME280;51449;51.676;5.812;2023-05-29T13:15:38;102393.25;;;20.42;35.19
59104;BME280;51449;51.676;5.812;2023-05-29T13:18:20;102395.31;;;20.61;35.74
59104;BME280;51449;51.676;5.812;2023-05-29T13:21:01;102393.19;;;20.90;35.44
59104;BME280;51449;51.676;5.812;2023-05-29T13:23:43;102392.13;;;20.98;33.83
59104;BME280;51449;51.676;5.812;2023-05-29T13:26:23;102402.75;;;21.08;34.50
59104;BME280;51449;51.676;5.812;2023-05-29T13:29:03;102395.75;;;21.18;33.18
59104;BME280;51449;51.676;5.812;2023-05-29T13:31:44;102391.41;;;21.21;33.75
59104;BME280;51449;51.676;5.812;2023-05-29T13:34:24;102389.41;;;21.21;33.35
59104;BME280;51449;51.676;5.812;2023-05-29T13:37:08;102394.59;;;21.19;34.55
59104;BME280;51449;51.676;5.812;2023-05-29T13:39:50;102394.81;;;21.30;34.32
59104;BME280;51449;51.676;5.812;2023-05-29T13:42:31;102396.50;;;21.54;34.13
59104;BME280;51449;51.676;5.812;2023-05-29T13:45:11;102380.94;;;21.56;33.46
59104;BME280;51449;51.676;5.812;2023-05-29T13:47:54;102372.81;;;21.51;33.55
59104;BME280;51449;51.676;5.812;2023-05-29T13:50:35;102386.09;;;21.54;32.77
59104;BME280;51449;51.676;5.812;2023-05-29T13:53:18;102378.13;;;21.56;32.35
59104;BME280;51449;51.676;5.812;2023-05-29T13:55:59;102385.75;;;21.56;32.11
59104;BME280;51449;51.676;5.812;2023-05-29T13:58:39;102383.88;;;21.64;32.85
59104;BME280;51449;51.676;5.812;2023-05-29T14:01:20;102371.72;;;21.79;32.96
59104;BME280;51449;51.676;5.812;2023-05-29T14:04:01;102389.88;;;21.85;32.07
59104;BME280;51449;51.676;5.812;2023-05-29T14:06:42;102380.63;;;21.85;32.44
59104;BME280;51449;51.676;5.812;2023-05-29T14:09:22;102374.72;;;21.90;32.18
59104;BME280;51449;51.676;5.812;2023-05-29T14:12:07;102375.28;;;21.99;32.54
59104;BME280;51449;51.676;5.812;2023-05-29T14:14:48;102379.41;;;22.05;31.83
59104;BME280;51449;51.676;5.812;2023-05-29T14:17:28;102380.25;;;21.86;31.18